createdAt,value
2018-12-31T00:02:03.024Z,90.56
2018-12-31T00:04:31.917Z,90.38
2018-12-31T00:07:00.439Z,90.38
2018-12-31T00:09:28.988Z,90.39
2018-12-31T00:12:00.658Z,90.49
2018-12-31T00:14:32.249Z,91.09
2018-12-31T00:17:04.206Z,91.46
2018-12-31T00:19:35.848Z,90.87
2018-12-31T00:22:07.448Z,90.87
2018-12-31T00:24:38.676Z,90.94
2018-12-31T00:27:07.233Z,90.96
2018-12-31T00:29:35.786Z,90.92
2018-12-31T00:32:04.339Z,90.97
2018-12-31T00:34:32.885Z,90.96
2018-12-31T00:37:01.441Z,91.38
2018-12-31T00:39:30.414Z,91.38
2018-12-31T00:41:58.974Z,91.12
2018-12-31T00:44:27.956Z,91.12
2018-12-31T00:46:56.521Z,91.32
2018-12-31T00:49:25.084Z,91.32
2018-12-31T00:51:53.627Z,91.55
2018-12-31T00:54:22.191Z,91.60
2018-12-31T00:56:51.086Z,91.92
2018-12-31T00:59:21.184Z,92.23
2018-12-31T01:01:51.258Z,92.23
2018-12-31T01:04:21.359Z,92.34
2018-12-31T01:06:55.253Z,92.70
2018-12-31T01:09:23.810Z,92.83
2018-12-31T01:11:52.369Z,92.83
2018-12-31T01:14:23.630Z,93.01
2018-12-31T01:16:54.969Z,91.70
2018-12-31T01:19:26.713Z,91.70
2018-12-31T01:21:55.294Z,91.71
2018-12-31T01:24:23.864Z,91.36
2018-12-31T01:26:55.127Z,91.78
2018-12-31T01:29:24.004Z,91.77
2018-12-31T01:31:55.250Z,91.25
2018-12-31T01:34:26.746Z,91.79
2018-12-31T01:36:55.312Z,91.79
2018-12-31T01:39:26.959Z,91.70
2018-12-31T01:41:58.208Z,91.23
2018-12-31T01:44:29.949Z,91.23
2018-12-31T01:46:58.506Z,92.00
2018-12-31T01:49:30.019Z,92.34
2018-12-31T01:51:58.561Z,92.34
2018-12-31T01:54:27.168Z,91.64
2018-12-31T01:56:58.839Z,91.64
2018-12-31T01:59:30.397Z,92.00
2018-12-31T02:02:01.978Z,91.89
2018-12-31T02:04:30.536Z,91.89
2018-12-31T02:07:01.761Z,92.70
2018-12-31T02:09:33.281Z,92.70
2018-12-31T02:12:01.833Z,92.97
2018-12-31T02:14:33.447Z,93.56
2018-12-31T02:17:02.004Z,93.56
2018-12-31T02:19:33.297Z,93.52
2018-12-31T02:22:04.762Z,93.31
2018-12-31T02:24:33.315Z,92.96
2018-12-31T02:27:04.799Z,92.65
2018-12-31T02:29:36.039Z,92.65
2018-12-31T02:32:04.596Z,92.05
2018-12-31T02:34:35.832Z,92.13
2018-12-31T02:37:07.379Z,92.44
2018-12-31T02:39:35.941Z,92.49
2018-12-31T02:42:07.225Z,92.30
2018-12-31T02:44:38.578Z,92.30
2018-12-31T02:47:09.814Z,91.86
2018-12-31T02:49:38.409Z,91.78
2018-12-31T02:52:10.119Z,91.96
2018-12-31T02:54:38.706Z,91.53
2018-12-31T02:57:10.278Z,92.09
2018-12-31T02:59:41.666Z,92.09
2018-12-31T03:02:10.224Z,92.65
2018-12-31T03:04:41.645Z,92.82
2018-12-31T03:07:13.127Z,92.82
2018-12-31T03:09:42.584Z,92.65
2018-12-31T03:12:14.231Z,91.97
2018-12-31T03:14:45.745Z,91.97
2018-12-31T03:17:14.289Z,91.59
2018-12-31T03:19:42.841Z,91.59
2018-12-31T03:22:11.403Z,91.94
2018-12-31T03:24:39.948Z,92.03
2018-12-31T03:27:08.509Z,91.75
2018-12-31T03:29:37.051Z,92.62
2018-12-31T03:32:05.629Z,93.57
2018-12-31T03:34:34.181Z,93.95
2018-12-31T03:37:02.737Z,94.07
2018-12-31T03:39:31.303Z,94.28
2018-12-31T03:42:00.352Z,94.28
2018-12-31T03:44:28.928Z,94.34
2018-12-31T03:47:00.330Z,94.47
2018-12-31T03:49:29.268Z,93.90
2018-12-31T03:51:57.828Z,93.20
2018-12-31T03:54:26.463Z,93.02
2018-12-31T03:56:56.513Z,92.82
2018-12-31T03:59:25.080Z,92.79
2018-12-31T04:01:54.024Z,92.69
2018-12-31T04:04:22.594Z,92.96
2018-12-31T04:06:51.147Z,92.80
2018-12-31T04:09:21.245Z,92.21
2018-12-31T04:11:51.342Z,92.21
2018-12-31T04:14:22.673Z,91.99
2018-12-31T04:16:51.226Z,91.80
2018-12-31T04:19:22.972Z,92.38
2018-12-31T04:21:51.534Z,92.76
2018-12-31T04:24:20.090Z,92.76
2018-12-31T04:26:51.898Z,92.75
2018-12-31T04:29:20.451Z,92.94
2018-12-31T04:31:50.551Z,93.14
2018-12-31T04:34:21.821Z,93.28
2018-12-31T04:36:50.384Z,94.04
2018-12-31T04:39:22.051Z,94.29
2018-12-31T04:41:53.614Z,94.29
2018-12-31T04:44:25.040Z,94.43
2018-12-31T04:46:56.619Z,94.19
2018-12-31T04:49:27.915Z,94.19
2018-12-31T04:51:59.186Z,95.07
2018-12-31T04:54:27.745Z,95.07
2018-12-31T04:56:56.294Z,94.84
2018-12-31T04:59:24.862Z,94.88
2018-12-31T05:01:53.410Z,94.88
2018-12-31T05:04:24.754Z,95.01
2018-12-31T05:06:56.046Z,94.95
2018-12-31T05:09:27.341Z,94.95
2018-12-31T05:11:58.741Z,94.87
2018-12-31T05:14:30.376Z,94.79
2018-12-31T05:16:58.927Z,94.79
2018-12-31T05:19:30.408Z,94.42
2018-12-31T05:22:01.643Z,93.69
2018-12-31T05:24:30.203Z,93.59
2018-12-31T05:26:58.742Z,93.59
2018-12-31T05:29:30.295Z,93.12
2018-12-31T05:31:58.848Z,93.35
2018-12-31T05:34:30.078Z,93.62
2018-12-31T05:36:58.679Z,93.62
2018-12-31T05:39:27.239Z,94.53
2018-12-31T05:41:58.830Z,94.51
2018-12-31T05:44:30.127Z,94.42
2018-12-31T05:47:01.415Z,94.42
2018-12-31T05:49:32.914Z,94.43
2018-12-31T05:52:04.450Z,94.50
2018-12-31T05:54:33.049Z,94.93
2018-12-31T05:57:04.705Z,94.69
2018-12-31T05:59:35.932Z,94.69
2018-12-31T06:02:04.494Z,94.44
2018-12-31T06:04:36.286Z,94.90
2018-12-31T06:07:04.885Z,94.90
2018-12-31T06:09:33.437Z,94.70
2018-12-31T06:12:05.284Z,94.70
2018-12-31T06:14:36.578Z,94.39
2018-12-31T06:17:05.323Z,94.55
2018-12-31T06:19:36.807Z,95.08
2018-12-31T06:22:08.379Z,95.19
2018-12-31T06:24:39.851Z,95.19
2018-12-31T06:27:08.415Z,95.19
2018-12-31T06:29:36.973Z,95.10
2018-12-31T06:32:05.878Z,94.79
2018-12-31T06:34:34.432Z,94.79
2018-12-31T06:37:03.339Z,94.79
2018-12-31T06:39:31.882Z,95.03
2018-12-31T06:42:00.858Z,94.92
2018-12-31T06:44:29.413Z,95.36
2018-12-31T06:46:57.971Z,95.36
2018-12-31T06:49:29.239Z,95.35
2018-12-31T06:51:57.793Z,95.38
2018-12-31T06:54:29.090Z,95.23
2018-12-31T06:56:57.962Z,94.94
2018-12-31T06:59:26.526Z,94.53
2018-12-31T07:02:06.028Z,94.64
2018-12-31T07:04:43.840Z,94.17
2018-12-31T07:07:23.037Z,94.17
2018-12-31T07:10:00.520Z,93.98
2018-12-31T07:12:38.022Z,93.73
2018-12-31T07:15:12.786Z,94.23
2018-12-31T07:17:53.759Z,93.39
2018-12-31T07:20:45.077Z,93.39
2018-12-31T07:23:14.178Z,94.35
2018-12-31T07:25:42.748Z,94.14
2018-12-31T07:28:11.320Z,94.14
2018-12-31T07:30:39.872Z,94.24
2018-12-31T07:33:11.150Z,94.12
2018-12-31T07:35:39.731Z,93.48
2018-12-31T07:38:10.953Z,93.48
2018-12-31T07:40:39.514Z,94.01
2018-12-31T07:43:09.630Z,94.01
2018-12-31T07:45:41.086Z,94.37
2018-12-31T07:48:12.685Z,94.81
2018-12-31T07:50:41.233Z,94.81
2018-12-31T07:53:09.801Z,94.37
2018-12-31T07:55:38.377Z,93.46
2018-12-31T07:58:10.272Z,93.53
2018-12-31T08:00:38.858Z,93.39
2018-12-31T08:03:07.407Z,93.11
2018-12-31T08:05:38.722Z,93.62
2018-12-31T08:08:10.452Z,93.62
2018-12-31T08:10:41.714Z,94.22
2018-12-31T08:13:13.347Z,94.02
2018-12-31T08:15:45.316Z,93.44
2018-12-31T08:18:13.916Z,93.59
2018-12-31T08:20:45.471Z,93.59
2018-12-31T08:23:14.040Z,94.36
2018-12-31T08:25:45.527Z,93.86
2018-12-31T08:28:14.410Z,93.55
2018-12-31T08:30:45.650Z,93.25
2018-12-31T08:33:14.231Z,92.76
2018-12-31T08:35:42.790Z,92.46
2018-12-31T08:38:14.516Z,92.35
2018-12-31T08:40:43.123Z,91.84
2018-12-31T08:43:11.683Z,91.92
2018-12-31T08:45:40.292Z,92.42
2018-12-31T08:48:11.887Z,92.20
2018-12-31T08:50:40.447Z,91.78
2018-12-31T08:53:11.772Z,91.77
2018-12-31T08:55:40.361Z,91.69
2018-12-31T08:58:11.661Z,91.65
2018-12-31T09:00:40.274Z,91.48
2018-12-31T09:03:08.820Z,91.32
2018-12-31T09:05:37.404Z,91.67
2018-12-31T09:08:05.970Z,91.94
2018-12-31T09:10:34.917Z,91.31
2018-12-31T09:13:06.534Z,90.97
2018-12-31T09:15:35.096Z,90.30
2018-12-31T09:18:03.748Z,90.31
2018-12-31T09:20:35.310Z,90.02
2018-12-31T09:23:03.890Z,89.78
2018-12-31T09:25:32.453Z,89.29
2018-12-31T09:28:01.395Z,88.68
2018-12-31T09:30:29.974Z,88.52
2018-12-31T09:33:01.287Z,88.31
2018-12-31T09:35:29.849Z,89.19
2018-12-31T09:37:58.560Z,89.15
2018-12-31T09:40:27.162Z,89.25
2018-12-31T09:42:59.095Z,89.71
2018-12-31T09:45:27.652Z,89.86
2018-12-31T09:47:56.215Z,89.62
2018-12-31T09:50:27.469Z,89.77
2018-12-31T09:52:56.041Z,89.89
2018-12-31T09:55:24.601Z,89.84
2018-12-31T09:57:53.479Z,89.07
2018-12-31T10:00:23.589Z,87.71
2018-12-31T10:02:52.566Z,87.81
2018-12-31T10:05:21.126Z,87.86
2018-12-31T10:07:51.216Z,87.59
2018-12-31T10:10:24.186Z,87.75
2018-12-31T10:12:52.742Z,88.36
2018-12-31T10:15:21.295Z,87.46
2018-12-31T10:17:52.882Z,86.27
2018-12-31T10:20:21.458Z,86.23
2018-12-31T10:22:52.764Z,86.93
2018-12-31T10:25:24.079Z,86.30
2018-12-31T10:27:52.633Z,85.24
2018-12-31T10:30:21.175Z,85.23
2018-12-31T10:32:55.809Z,85.76
2018-12-31T10:35:26.811Z,85.44
2018-12-31T10:37:55.362Z,86.00
2018-12-31T10:40:24.255Z,86.10
2018-12-31T10:42:53.165Z,86.58
2018-12-31T10:45:21.733Z,86.38
2018-12-31T10:47:50.286Z,86.30
2018-12-31T10:50:20.345Z,85.54
2018-12-31T10:52:50.409Z,85.00
2018-12-31T10:55:20.487Z,85.02
2018-12-31T10:57:49.573Z,85.01
2018-12-31T11:00:22.696Z,84.25
2018-12-31T11:02:51.337Z,84.41
2018-12-31T11:05:22.809Z,84.03
2018-12-31T11:07:51.758Z,84.34
2018-12-31T11:10:20.742Z,83.54
2018-12-31T11:12:49.705Z,83.81
2018-12-31T11:15:18.267Z,83.23
2018-12-31T11:17:46.958Z,83.25
2018-12-31T11:20:15.844Z,83.73
2018-12-31T11:22:44.397Z,83.60
2018-12-31T11:25:15.643Z,83.78
2018-12-31T11:27:44.194Z,83.71
2018-12-31T11:30:15.741Z,83.27
2018-12-31T11:32:44.313Z,83.09
2018-12-31T11:35:12.871Z,83.38
2018-12-31T11:37:41.423Z,83.40
2018-12-31T11:40:12.880Z,83.19
2018-12-31T11:42:41.751Z,82.91
2018-12-31T11:45:10.670Z,82.94
2018-12-31T11:47:39.269Z,82.12
2018-12-31T11:50:07.888Z,83.25
2018-12-31T11:52:36.451Z,82.92
2018-12-31T11:55:05.288Z,82.06
2018-12-31T11:57:33.895Z,82.37
2018-12-31T12:00:02.521Z,82.26
2018-12-31T12:02:31.075Z,82.29
2018-12-31T12:04:59.634Z,81.96
2018-12-31T12:07:28.286Z,82.25
2018-12-31T12:09:56.825Z,82.58
2018-12-31T12:12:25.387Z,82.40
2018-12-31T12:14:53.943Z,81.52
2018-12-31T12:17:22.512Z,81.61
2018-12-31T12:19:51.072Z,81.25
2018-12-31T12:22:21.188Z,80.31
2018-12-31T12:24:51.289Z,79.80
2018-12-31T12:27:22.674Z,79.42
2018-12-31T12:29:51.256Z,79.93
2018-12-31T12:32:20.500Z,80.40
2018-12-31T12:34:52.208Z,81.12
2018-12-31T12:37:20.903Z,79.67
2018-12-31T12:39:49.835Z,78.94
2018-12-31T12:42:20.837Z,78.85
2018-12-31T12:44:52.238Z,79.60
2018-12-31T12:47:23.992Z,79.30
2018-12-31T12:49:55.914Z,79.35
2018-12-31T12:52:27.157Z,78.79
2018-12-31T12:54:58.578Z,78.79
2018-12-31T12:57:27.619Z,78.54
2018-12-31T12:59:56.233Z,77.87
2018-12-31T13:02:27.517Z,77.72
2018-12-31T13:05:03.626Z,79.06
2018-12-31T13:07:27.987Z,79.82
2018-12-31T13:09:59.244Z,78.82
2018-12-31T13:12:30.900Z,79.31
2018-12-31T13:15:02.450Z,79.37
2018-12-31T13:17:31.102Z,80.19
2018-12-31T13:20:00.564Z,79.79
2018-12-31T13:22:31.915Z,80.31
2018-12-31T13:25:00.981Z,80.73
2018-12-31T13:27:29.553Z,80.72
2018-12-31T13:29:58.120Z,81.09
2018-12-31T13:32:27.064Z,81.20
2018-12-31T13:34:58.737Z,81.31
2018-12-31T13:37:30.015Z,81.15
2018-12-31T13:40:01.314Z,80.71
2018-12-31T13:42:32.583Z,81.29
2018-12-31T13:45:01.151Z,81.68
2018-12-31T13:47:30.177Z,82.34
2018-12-31T13:49:58.792Z,82.23
2018-12-31T13:52:27.867Z,81.92
2018-12-31T13:54:56.435Z,81.88
2018-12-31T13:57:25.029Z,81.92
2018-12-31T13:59:53.620Z,83.13
2018-12-31T14:02:25.278Z,82.66
2018-12-31T14:04:56.612Z,81.55
2018-12-31T14:07:26.725Z,80.95
2018-12-31T14:09:55.284Z,81.04
2018-12-31T14:12:23.844Z,81.54
2018-12-31T14:14:52.403Z,81.72
2018-12-31T14:17:23.934Z,81.57
2018-12-31T14:19:52.503Z,81.41
2018-12-31T14:22:21.057Z,81.48
2018-12-31T14:24:49.946Z,81.21
2018-12-31T14:27:21.264Z,81.13
2018-12-31T14:29:52.853Z,80.87
2018-12-31T14:32:21.434Z,81.14
2018-12-31T14:34:55.417Z,81.59
2018-12-31T14:37:26.796Z,82.35
2018-12-31T14:39:55.365Z,83.19
2018-12-31T14:42:24.136Z,82.95
2018-12-31T14:44:55.603Z,82.36
2018-12-31T14:47:24.177Z,82.98
2018-12-31T14:49:52.748Z,82.98
2018-12-31T14:52:21.307Z,83.11
2018-12-31T14:54:50.057Z,84.65
2018-12-31T14:57:18.613Z,84.20
2018-12-31T14:59:49.629Z,84.14
2018-12-31T15:02:18.252Z,84.31
2018-12-31T15:04:49.552Z,84.62
2018-12-31T15:07:18.215Z,84.81
2018-12-31T15:09:52.389Z,84.39
2018-12-31T15:12:23.758Z,84.15
2018-12-31T15:14:55.338Z,84.96
2018-12-31T15:17:27.123Z,84.64
2018-12-31T15:19:55.680Z,84.30
2018-12-31T15:22:29.074Z,84.52
2018-12-31T15:24:57.332Z,85.03
2018-12-31T15:27:28.910Z,85.38
2018-12-31T15:29:57.510Z,85.39
2018-12-31T15:32:28.829Z,85.60
2018-12-31T15:34:57.555Z,85.97
2018-12-31T15:37:26.143Z,86.57
2018-12-31T15:39:54.877Z,86.52
2018-12-31T15:42:23.848Z,86.30
2018-12-31T15:44:55.398Z,86.44
2018-12-31T15:47:27.419Z,86.46
2018-12-31T15:49:55.982Z,86.24
2018-12-31T15:52:24.820Z,86.00
2018-12-31T15:54:56.523Z,85.67
2018-12-31T15:57:25.087Z,85.95
2018-12-31T15:59:53.634Z,86.12
2018-12-31T16:02:22.234Z,86.06
2018-12-31T16:04:53.878Z,85.85
2018-12-31T16:07:22.435Z,86.17
2018-12-31T16:09:50.995Z,86.38
2018-12-31T16:12:19.564Z,87.57
2018-12-31T16:15:36.170Z,87.67
2018-12-31T16:18:30.235Z,88.00
2018-12-31T16:21:31.032Z,88.49
2018-12-31T16:24:00.458Z,88.33
2018-12-31T16:26:29.054Z,88.87
2018-12-31T16:29:00.386Z,89.28
2018-12-31T16:31:28.942Z,89.14
2018-12-31T16:33:57.861Z,89.25
2018-12-31T16:36:26.799Z,88.86
2018-12-31T16:38:55.363Z,88.82
2018-12-31T16:41:24.351Z,89.04
2018-12-31T16:43:52.977Z,89.12
2018-12-31T16:46:21.532Z,88.60
2018-12-31T16:48:50.107Z,88.61
2018-12-31T16:51:18.709Z,89.28
2018-12-31T16:53:47.921Z,90.02
2018-12-31T16:56:16.479Z,90.27
2018-12-31T16:58:45.045Z,90.40
2018-12-31T17:01:16.349Z,90.45
2018-12-31T17:03:44.908Z,90.68
2018-12-31T17:06:16.386Z,90.80
2018-12-31T17:08:44.983Z,90.68
2018-12-31T17:11:16.370Z,90.28
2018-12-31T17:13:45.379Z,90.14
2018-12-31T17:16:13.941Z,90.63
2018-12-31T17:18:42.492Z,90.92
2018-12-31T17:21:11.108Z,90.53
2018-12-31T17:23:42.729Z,90.40
2018-12-31T17:26:11.294Z,90.23
2018-12-31T17:28:42.585Z,90.32
2018-12-31T17:31:11.148Z,90.36
2018-12-31T17:33:43.070Z,90.70
2018-12-31T17:36:14.519Z,90.01
2018-12-31T17:38:43.259Z,89.86
2018-12-31T17:41:11.867Z,89.99
2018-12-31T17:43:43.344Z,89.54
2018-12-31T17:46:14.924Z,89.23
2018-12-31T17:48:46.370Z,89.42
2018-12-31T17:51:18.340Z,89.86
2018-12-31T17:53:48.805Z,90.40
2018-12-31T17:56:20.551Z,90.17
2018-12-31T17:58:52.266Z,90.35
2018-12-31T18:01:24.783Z,90.59
2018-12-31T18:03:53.731Z,90.67
2018-12-31T18:06:25.444Z,90.70
2018-12-31T18:08:56.732Z,91.06
2018-12-31T18:11:25.679Z,91.39
2018-12-31T18:13:57.373Z,92.06
2018-12-31T18:16:25.971Z,92.71
2018-12-31T18:18:54.898Z,93.07
2018-12-31T18:21:26.487Z,93.90
2018-12-31T18:23:58.300Z,94.22
2018-12-31T18:26:29.754Z,94.63
2018-12-31T18:28:58.346Z,94.78
2018-12-31T18:31:27.231Z,94.53
2018-12-31T18:33:55.805Z,94.58
2018-12-31T18:36:24.373Z,94.45
2018-12-31T18:38:52.940Z,94.96
2018-12-31T18:41:21.546Z,94.97
2018-12-31T18:43:53.089Z,94.96
2018-12-31T18:46:24.685Z,95.02
2018-12-31T18:48:56.251Z,94.97
2018-12-31T18:51:27.930Z,95.07
2018-12-31T18:53:59.312Z,95.39
2018-12-31T18:56:27.931Z,95.19
2018-12-31T18:58:56.889Z,95.34
2018-12-31T19:01:25.437Z,95.87
2018-12-31T19:03:56.917Z,95.75
2018-12-31T19:06:25.472Z,95.79
2018-12-31T19:08:54.027Z,96.12
2018-12-31T19:11:22.964Z,96.09
2018-12-31T19:13:51.528Z,95.98
2018-12-31T19:16:20.078Z,96.06
2018-12-31T19:18:48.652Z,96.11
2018-12-31T19:21:19.536Z,96.23
2018-12-31T19:23:48.441Z,96.38
2018-12-31T19:26:17.135Z,96.50
2018-12-31T19:28:45.675Z,96.43
2018-12-31T19:31:14.574Z,96.48
2018-12-31T19:33:43.123Z,96.55
2018-12-31T19:36:11.707Z,96.47
2018-12-31T19:38:40.376Z,96.44
2018-12-31T19:41:09.002Z,96.42
2018-12-31T19:43:37.969Z,96.36
2018-12-31T19:46:06.896Z,95.78
2018-12-31T19:48:35.459Z,95.62
2018-12-31T19:51:04.206Z,95.50
2018-12-31T19:53:32.771Z,95.68
2018-12-31T19:56:01.406Z,95.77
2018-12-31T19:58:30.020Z,95.97
2018-12-31T20:00:58.593Z,96.05
2018-12-31T20:03:30.439Z,95.96
2018-12-31T20:05:58.998Z,96.20
2018-12-31T20:08:27.568Z,96.32
2018-12-31T20:10:58.817Z,96.16
2018-12-31T20:13:30.334Z,96.22
2018-12-31T20:16:01.831Z,96.86
2018-12-31T20:18:33.751Z,97.21
2018-12-31T20:21:02.317Z,97.23
2018-12-31T20:23:30.963Z,97.06
2018-12-31T20:25:59.576Z,97.10
2018-12-31T20:28:28.141Z,97.21
2018-12-31T20:30:56.695Z,97.18
2018-12-31T20:33:25.265Z,97.52
2018-12-31T20:35:53.825Z,97.71
2018-12-31T20:38:22.397Z,97.43
2018-12-31T20:40:50.969Z,97.19
2018-12-31T20:43:22.538Z,96.93
2018-12-31T20:45:51.183Z,96.83
2018-12-31T20:48:21.273Z,96.87
2018-12-31T20:50:51.373Z,96.92
2018-12-31T20:53:25.544Z,97.31
2018-12-31T20:55:54.093Z,97.33
2018-12-31T20:58:22.662Z,97.43
2018-12-31T21:00:51.225Z,97.53
2018-12-31T21:03:21.322Z,97.58
2018-12-31T21:05:53.064Z,97.38
2018-12-31T21:08:21.622Z,97.51
2018-12-31T21:10:50.184Z,97.64
2018-12-31T21:13:18.744Z,97.64
2018-12-31T21:15:50.033Z,97.62
2018-12-31T21:18:21.397Z,97.60
2018-12-31T21:20:52.990Z,97.66
2018-12-31T21:23:21.566Z,97.53
2018-12-31T21:25:50.222Z,97.51
2018-12-31T21:28:18.765Z,97.48
2018-12-31T21:30:50.372Z,97.76
2018-12-31T21:33:20.804Z,97.87
2018-12-31T21:35:52.294Z,97.93
2018-12-31T21:38:23.820Z,97.81
2018-12-31T21:40:52.431Z,97.74
2018-12-31T21:43:21.360Z,97.66
2018-12-31T21:45:55.944Z,97.49
2018-12-31T21:48:24.508Z,97.30
2018-12-31T21:50:53.071Z,97.30
2018-12-31T21:53:21.617Z,97.39
2018-12-31T21:55:50.907Z,97.45
2018-12-31T21:58:19.467Z,97.61
2018-12-31T22:00:49.802Z,97.80
2018-12-31T22:03:21.474Z,97.99
2018-12-31T22:05:53.233Z,98.06
2018-12-31T22:08:21.990Z,98.02
2018-12-31T22:10:50.526Z,98.06
2018-12-31T22:13:20.609Z,98.00
2018-12-31T22:15:50.670Z,98.00
2018-12-31T22:18:22.373Z,98.01
2018-12-31T22:20:50.940Z,98.17
2018-12-31T22:23:19.500Z,98.38
2018-12-31T22:25:49.694Z,98.40
2018-12-31T22:28:18.260Z,98.52
2018-12-31T22:30:48.784Z,98.45
2018-12-31T22:33:20.248Z,98.40
2018-12-31T22:35:48.791Z,98.39
2018-12-31T22:38:18.434Z,98.39
2018-12-31T22:40:52.852Z,98.26
2018-12-31T22:43:24.819Z,98.21
2018-12-31T22:45:53.378Z,98.11
2018-12-31T22:48:24.718Z,97.96
2018-12-31T22:50:53.275Z,97.73
2018-12-31T22:53:22.174Z,97.54
2018-12-31T22:55:51.116Z,97.29
2018-12-31T22:58:21.734Z,96.97
2018-12-31T23:00:51.968Z,96.75
2018-12-31T23:03:23.242Z,96.85
2018-12-31T23:05:55.187Z,96.72
2018-12-31T23:08:26.434Z,96.43
2018-12-31T23:10:57.820Z,96.24
2018-12-31T23:13:27.204Z,96.10
2018-12-31T23:15:56.099Z,96.22
2018-12-31T23:18:27.951Z,96.41
2018-12-31T23:20:59.631Z,96.22
2018-12-31T23:23:30.881Z,96.03
2018-12-31T23:26:02.253Z,96.01
2018-12-31T23:28:33.721Z,96.07
2018-12-31T23:31:05.241Z,96.35
2018-12-31T23:33:36.740Z,96.15
2018-12-31T23:36:05.313Z,96.09
2018-12-31T23:38:36.882Z,96.22
2018-12-31T23:41:08.828Z,96.39
2018-12-31T23:43:37.879Z,96.26
2018-12-31T23:46:06.490Z,96.15
2018-12-31T23:48:38.164Z,95.91
2018-12-31T23:51:09.822Z,95.63
2018-12-31T23:53:38.427Z,95.55
2018-12-31T23:56:07.033Z,95.45
2018-12-31T23:58:38.512Z,95.20
